FHYPE EGPH-EGPH

Flight info

Callsign FHYPE
Flight time N/A
Altitude
Route EGPH/06 EGPH
Aircraft H160

Departure

Time 2026-04-23 12:12
Airport Edinburgh Airport (EGPH)

Arrival

Time N/A
Airport Edinburgh Airport (EGPH)
Time Latitude Longitude Altitude Speed Heading
2026-04-23 11:57 55.94742 -3.34615 112 ft 0 kts 149°
2026-04-23 12:03 55.94763 -3.34632 110 ft 6 kts 319°
2026-04-23 12:03 55.94778 -3.34702 112 ft 8 kts 240°
2026-04-23 12:03 55.94764 -3.34794 112 ft 9 kts 302°
2026-04-23 12:03 55.94807 -3.34884 112 ft 11 kts 299°
2026-04-23 12:04 55.94847 -3.35015 112 ft 13 kts 300°
2026-04-23 12:04 55.94896 -3.35177 112 ft 16 kts 301°
2026-04-23 12:04 55.94957 -3.35370 112 ft 19 kts 298°
2026-04-23 12:04 55.95026 -3.35597 112 ft 22 kts 296°
2026-04-23 12:05 55.95059 -3.35752 112 ft 9 kts 249°
2026-04-23 12:05 55.95051 -3.35854 112 ft 9 kts 303°
2026-04-23 12:05 55.95090 -3.35986 112 ft 15 kts 288°
2026-04-23 12:05 55.95129 -3.36182 110 ft 18 kts 289°
2026-04-23 12:06 55.95107 -3.36368 112 ft 16 kts 236°
2026-04-23 12:06 55.95050 -3.36540 112 ft 16 kts 237°
2026-04-23 12:06 55.94925 -3.36900 112 ft 18 kts 239°
2026-04-23 12:07 55.94860 -3.37094 112 ft 19 kts 238°
2026-04-23 12:07 55.94790 -3.37300 110 ft 20 kts 240°
2026-04-23 12:07 55.94732 -3.37479 109 ft 17 kts 241°
2026-04-23 12:07 55.94669 -3.37659 110 ft 17 kts 239°
2026-04-23 12:08 55.94605 -3.37845 112 ft 14 kts 238°
2026-04-23 12:08 55.94599 -3.37957 110 ft 11 kts 322°
2026-04-23 12:08 55.94629 -3.37988 110 ft 0 kts 329°
2026-04-23 12:10 55.94630 -3.37989 110 ft 1 kts 328°
2026-04-23 12:10 55.94665 -3.38027 110 ft 11 kts 328°
2026-04-23 12:11 55.94731 -3.38036 109 ft 9 kts 46°
2026-04-23 12:11 55.94743 -3.38002 111 ft 8 kts 60°
2026-04-23 12:11 55.94822 -3.37785 152 ft 45 kts 57°
2026-04-23 12:11 55.95082 -3.37021 274 ft 97 kts 60°
2026-04-23 12:12 55.95443 -3.35900 575 ft 112 kts 59°
2026-04-23 12:12 55.95884 -3.34626 728 ft 121 kts 60°
2026-04-23 12:12 55.96327 -3.33344 902 ft 124 kts 59°
2026-04-23 12:12 55.96783 -3.32046 1081 ft 123 kts 59°
2026-04-23 12:13 55.97243 -3.30744 1267 ft 123 kts 61°
2026-04-23 12:13 55.97709 -3.29432 1446 ft 128 kts 61°
2026-04-23 12:13 55.98246 -3.28159 1624 ft 132 kts 44°
2026-04-23 12:13 55.99090 -3.27501 1810 ft 136 kts 12°
2026-04-23 12:14 56.00039 -3.27553 1995 ft 136 kts 356°
2026-04-23 12:14 56.00997 -3.27743 2175 ft 139 kts 355°
2026-04-23 12:14 56.01984 -3.27944 2261 ft 153 kts 354°
2026-04-23 12:14 56.03128 -3.28175 2148 ft 170 kts 355°
2026-04-23 12:15 56.04242 -3.28412 2314 ft 151 kts 355°
2026-04-23 12:15 56.05198 -3.28628 2162 ft 130 kts 355°
2026-04-23 12:15 56.06024 -3.28821 2025 ft 111 kts 356°
2026-04-23 12:15 56.06739 -3.29004 1952 ft 98 kts 354°
2026-04-23 12:16 56.07370 -3.29172 1937 ft 85 kts 354°
2026-04-23 12:16 56.07918 -3.29315 1930 ft 74 kts 354°
2026-04-23 12:16 56.08391 -3.29437 1921 ft 63 kts 355°
2026-04-23 12:16 56.08792 -3.29548 1916 ft 53 kts 355°
2026-04-23 12:17 56.09126 -3.29658 1911 ft 44 kts 354°
2026-04-23 12:17 56.09408 -3.29783 1910 ft 41 kts 354°
2026-04-23 12:17 56.09680 -3.29907 1915 ft 40 kts 353°
2026-04-23 12:17 56.09959 -3.30043 1916 ft 43 kts 354°
2026-04-23 12:18 56.10248 -3.30187 1917 ft 43 kts 353°
2026-04-23 12:18 56.10528 -3.30316 1915 ft 41 kts 353°
2026-04-23 12:18 56.10802 -3.30447 1915 ft 42 kts 354°
2026-04-23 12:18 56.11083 -3.30472 1910 ft 44 kts 19°
2026-04-23 12:19 56.11502 -3.30264 1907 ft 81 kts 19°
2026-04-23 12:19 56.12159 -3.29913 1900 ft 115 kts 20°
2026-04-23 12:19 56.13010 -3.29473 1917 ft 132 kts 19°
2026-04-23 12:19 56.13757 -3.28716 1914 ft 122 kts 47°
2026-04-23 12:20 56.14361 -3.27505 1888 ft 142 kts 53°
2026-04-23 12:20 56.15020 -3.26118 1925 ft 145 kts 52°
2026-04-23 12:20 56.15734 -3.24837 1911 ft 146 kts 45°
2026-04-23 12:20 56.16531 -3.23715 1917 ft 148 kts 39°
2026-04-23 12:21 56.17397 -3.22713 1914 ft 149 kts 34°
2026-04-23 12:21 56.18303 -3.21814 1916 ft 148 kts 31°
2026-04-23 12:21 56.19229 -3.20991 1909 ft 150 kts 28°
2026-04-23 12:21 56.20174 -3.20218 1909 ft 149 kts 27°
2026-04-23 12:22 56.21129 -3.19480 1918 ft 149 kts 26°
2026-04-23 12:22 56.22085 -3.18766 1914 ft 149 kts 25°
2026-04-23 12:22 56.23043 -3.18065 1918 ft 148 kts 25°
2026-04-23 12:22 56.24006 -3.17375 1924 ft 149 kts 25°
2026-04-23 12:23 56.24979 -3.16697 1924 ft 150 kts 25°
2026-04-23 12:23 56.25947 -3.16025 1910 ft 150 kts 24°
2026-04-23 12:23 56.26913 -3.15355 1916 ft 148 kts 24°
2026-04-23 12:23 56.27878 -3.14687 1910 ft 149 kts 23°
2026-04-23 12:24 56.28843 -3.14020 1920 ft 148 kts 24°
2026-04-23 12:24 56.29809 -3.13348 1918 ft 149 kts 24°
2026-04-23 12:24 56.30772 -3.12675 1915 ft 148 kts 24°
2026-04-23 12:24 56.31735 -3.12006 1917 ft 148 kts 24°
2026-04-23 12:25 56.32700 -3.11337 1914 ft 149 kts 23°
2026-04-23 12:25 56.33667 -3.10666 1916 ft 149 kts 24°
2026-04-23 12:25 56.34631 -3.09995 1918 ft 148 kts 24°
2026-04-23 12:25 56.35270 -3.09551 1917 ft 148 kts 24°
2026-04-23 12:26 56.36230 -3.08885 1911 ft 149 kts 24°
2026-04-23 12:26 56.37191 -3.08218 1919 ft 148 kts 24°
2026-04-23 12:26 56.38487 -3.07374 1912 ft 150 kts 15°
2026-04-23 12:26 56.39189 -3.07314 1917 ft 150 kts 356°
2026-04-23 12:27 56.40461 -3.08223 1919 ft 148 kts 331°
2026-04-23 12:27 56.41059 -3.08881 1914 ft 149 kts 329°
2026-04-23 12:27 56.41909 -3.09847 1940 ft 135 kts 329°
2026-04-23 12:27 56.42674 -3.10521 1928 ft 112 kts 352°
2026-04-23 12:28 56.43356 -3.10284 1918 ft 95 kts 38°
2026-04-23 12:28 56.43704 -3.09393 1913 ft 85 kts 69°
2026-04-23 12:28 56.43935 -3.08410 1914 ft 85 kts 71°
2026-04-23 12:28 56.44165 -3.07429 1914 ft 85 kts 66°
2026-04-23 12:29 56.44629 -3.06760 1913 ft 88 kts 22°
2026-04-23 12:29 56.45218 -3.06497 1914 ft 87 kts 15°
2026-04-23 12:29 56.45814 -3.06263 1919 ft 88 kts 16°
2026-04-23 12:29 56.46408 -3.06028 1714 ft 86 kts 16°
2026-04-23 12:30 56.46945 -3.05643 1445 ft 82 kts 50°
2026-04-23 12:30 56.47201 -3.04746 1182 ft 79 kts 73°
2026-04-23 12:30 56.47415 -3.03695 934 ft 106 kts 73°
2026-04-23 12:30 56.47690 -3.02369 1004 ft 111 kts 73°
2026-04-23 12:31 56.47919 -3.01123 1001 ft 103 kts 85°
2026-04-23 12:31 56.47741 -2.99911 1010 ft 104 kts 127°
2026-04-23 12:31 56.47176 -2.99280 1022 ft 87 kts 162°
2026-04-23 12:31 56.46630 -2.99041 1010 ft 80 kts 158°
2026-04-23 12:32 56.46250 -2.98366 1016 ft 78 kts 111°
2026-04-23 12:32 56.46160 -2.97408 1015 ft 78 kts 98°
2026-04-23 12:32 56.46105 -2.96441 1019 ft 77 kts 98°
2026-04-23 12:32 56.46057 -2.95515 1019 ft 68 kts 98°
2026-04-23 12:33 56.46023 -2.94756 1038 ft 54 kts 96°
2026-04-23 12:33 56.45985 -2.94157 1013 ft 38 kts 84°
2026-04-23 12:33 56.46018 -2.93834 789 ft 19 kts 82°
2026-04-23 12:33 56.46083 -2.93704 723 ft 1 kts 82°
2026-04-23 12:34 56.46082 -2.93707 704 ft 0 kts 82°
2026-04-23 12:34 56.46092 -2.93645 626 ft 20 kts 83°
2026-04-23 12:34 56.46140 -2.93291 351 ft 32 kts 83°
2026-04-23 12:34 56.46274 -2.93181 322 ft 20 kts 87°
2026-04-23 12:35 56.46318 -2.93352 473 ft 6 kts 158°
2026-04-23 12:35 56.46287 -2.93326 503 ft 4 kts 158°
2026-04-23 12:35 56.46273 -2.93230 36 ft 25 kts 38°
2026-04-23 12:35 56.46282 -2.93218 72 ft 5 kts 339°
2026-04-23 12:36 56.46409 -2.93428 226 ft 15 kts 298°
2026-04-23 12:36 56.46477 -2.93551 331 ft 35 kts 173°
2026-04-23 12:36 56.46461 -2.93683 30 ft 40 kts 180°
2026-04-23 12:36 56.46520 -2.93708 6 ft 0 kts 243°
2026-04-23 12:37 56.46535 -2.93689 56 ft 26 kts 78°
2026-04-23 12:37 56.46483 -2.93411 217 ft 30 kts 137°
2026-04-23 12:37 56.46436 -2.93423 136 ft 0 kts 157°
2026-04-23 12:37 56.46434 -2.93421 135 ft 0 kts 252°
2026-04-23 12:38 56.46436 -2.93412 135 ft 2 kts 211°
2026-04-23 12:38 56.46436 -2.93409 135 ft 0 kts 141°